createdAt,value
2022-11-13T00:00:43.058Z,2.93
2022-11-13T00:01:43.073Z,2.91
2022-11-13T00:02:43.102Z,2.87
2022-11-13T00:03:43.029Z,2.89
2022-11-13T00:04:43.048Z,2.90
2022-11-13T00:05:43.096Z,2.81
2022-11-13T00:06:43.047Z,2.86
2022-11-13T00:07:43.049Z,2.89
2022-11-13T00:08:42.987Z,2.68
2022-11-13T00:09:43.000Z,2.63
2022-11-13T00:10:42.974Z,2.65
2022-11-13T00:11:42.975Z,2.66
2022-11-13T00:12:42.971Z,2.68
2022-11-13T00:13:42.985Z,2.50
2022-11-13T00:14:42.965Z,2.65
2022-11-13T00:15:42.966Z,2.57
2022-11-13T00:16:42.935Z,2.60
2022-11-13T00:17:42.929Z,2.65
2022-11-13T00:18:42.915Z,2.66
2022-11-13T00:19:42.911Z,2.68
2022-11-13T00:20:42.924Z,2.66
2022-11-13T00:21:42.975Z,2.58
2022-11-13T00:22:42.893Z,2.51
2022-11-13T00:23:42.886Z,2.61
2022-11-13T00:24:42.876Z,2.57
2022-11-13T00:25:42.888Z,2.50
2022-11-13T00:26:42.872Z,2.60
2022-11-13T00:27:42.858Z,2.65
2022-11-13T00:28:42.858Z,2.57
2022-11-13T00:29:42.832Z,2.60
2022-11-13T00:30:42.867Z,2.54
2022-11-13T00:31:42.845Z,2.60
2022-11-13T00:32:42.813Z,2.58
2022-11-13T00:34:09.241Z,2.60
2022-11-13T00:34:48.346Z,2.63
2022-11-13T00:35:42.780Z,2.58
2022-11-13T00:36:42.823Z,2.63
2022-11-13T00:37:42.849Z,2.51
2022-11-13T00:38:42.751Z,2.57
2022-11-13T00:39:42.770Z,2.50
2022-11-13T00:40:42.796Z,2.54
2022-11-13T00:41:42.781Z,2.61
2022-11-13T00:42:42.786Z,2.55
2022-11-13T00:43:42.713Z,2.55
2022-11-13T00:44:42.712Z,2.47
2022-11-13T00:45:42.714Z,2.55
2022-11-13T00:46:42.707Z,2.57
2022-11-13T00:47:42.677Z,2.54
2022-11-13T00:48:42.670Z,2.58
2022-11-13T00:49:42.679Z,2.47
2022-11-13T00:50:42.665Z,2.60
2022-11-13T00:51:42.679Z,2.54
2022-11-13T00:52:42.669Z,2.51
2022-11-13T00:53:42.744Z,2.54
2022-11-13T00:54:42.651Z,2.61
2022-11-13T00:55:42.625Z,2.68
2022-11-13T00:56:42.606Z,2.66
2022-11-13T00:57:42.648Z,2.71
2022-11-13T00:58:42.625Z,2.68
2022-11-13T00:59:42.607Z,2.73
2022-11-13T01:00:42.592Z,2.71
2022-11-13T01:01:42.646Z,2.73
2022-11-13T01:02:42.606Z,2.61
2022-11-13T01:03:42.577Z,2.58
2022-11-13T01:04:42.542Z,2.33
2022-11-13T01:05:42.560Z,2.29
2022-11-13T01:06:42.736Z,2.30
2022-11-13T01:07:42.532Z,2.35
2022-11-13T01:08:42.528Z,2.51
2022-11-13T01:09:42.588Z,2.30
2022-11-13T01:10:42.526Z,2.14
2022-11-13T01:11:42.501Z,2.01
2022-11-13T01:12:42.508Z,1.99
2022-11-13T01:13:42.554Z,1.89
2022-11-13T01:14:42.485Z,1.97
2022-11-13T01:15:42.484Z,2.03
2022-11-13T01:16:42.439Z,2.04
2022-11-13T01:17:42.441Z,2.01
2022-11-13T01:18:42.437Z,2.04
2022-11-13T01:19:42.428Z,2.07
2022-11-13T01:20:42.411Z,2.10
2022-11-13T01:21:42.474Z,2.04
2022-11-13T01:22:42.408Z,2.03
2022-11-13T01:23:42.401Z,2.17
2022-11-13T01:24:42.388Z,2.07
2022-11-13T01:25:42.455Z,2.12
2022-11-13T01:26:42.368Z,2.10
2022-11-13T01:27:42.384Z,2.24
2022-11-13T01:28:42.360Z,2.22
2022-11-13T01:29:42.388Z,2.22
2022-11-13T01:30:42.329Z,2.29
2022-11-13T01:31:42.325Z,2.32
2022-11-13T01:32:42.345Z,2.45
2022-11-13T01:33:42.312Z,2.42
2022-11-13T01:34:42.315Z,2.45
2022-11-13T01:35:50.910Z,2.39
2022-11-13T01:36:42.292Z,2.48
2022-11-13T01:37:42.293Z,2.48
2022-11-13T01:38:42.296Z,2.35
2022-11-13T01:39:42.300Z,2.17
2022-11-13T01:40:42.254Z,2.11
2022-11-13T01:41:42.356Z,2.11
2022-11-13T01:42:42.252Z,2.17
2022-11-13T01:43:42.262Z,2.01
2022-11-13T01:44:42.271Z,2.03
2022-11-13T01:45:42.272Z,2.12
2022-11-13T01:46:42.232Z,2.12
2022-11-13T01:47:42.292Z,2.06
2022-11-13T01:48:42.206Z,2.07
2022-11-13T01:49:42.286Z,1.99
2022-11-13T01:50:42.176Z,1.93
2022-11-13T01:51:42.190Z,1.92
2022-11-13T01:52:42.163Z,1.97
2022-11-13T01:53:42.197Z,2.00
2022-11-13T01:54:42.143Z,1.91
2022-11-13T01:55:42.144Z,1.93
2022-11-13T01:56:42.224Z,1.91
2022-11-13T01:57:42.230Z,1.74
2022-11-13T01:58:42.121Z,1.60
2022-11-13T01:59:42.160Z,1.62
2022-11-13T02:00:42.112Z,1.57
2022-11-13T02:01:42.181Z,1.60
2022-11-13T02:02:42.173Z,1.57
2022-11-13T02:03:42.110Z,1.74
2022-11-13T02:04:42.116Z,1.81
2022-11-13T02:05:42.064Z,1.81
2022-11-13T02:06:42.135Z,1.82
2022-11-13T02:07:42.061Z,1.81
2022-11-13T02:08:42.065Z,1.74
2022-11-13T02:09:42.038Z,1.63
2022-11-13T02:10:42.052Z,1.60
2022-11-13T02:11:42.121Z,1.53
2022-11-13T02:12:42.040Z,1.71
2022-11-13T02:13:42.087Z,1.71
2022-11-13T02:14:42.127Z,1.80
2022-11-13T02:15:41.990Z,1.77
2022-11-13T02:16:41.975Z,1.81
2022-11-13T02:17:42.004Z,1.67
2022-11-13T02:18:41.965Z,1.67
2022-11-13T02:19:41.956Z,1.69
2022-11-13T02:20:41.991Z,1.71
2022-11-13T02:21:41.941Z,1.69
2022-11-13T02:22:41.923Z,1.67
2022-11-13T02:23:41.971Z,1.73
2022-11-13T02:24:45.001Z,1.77
2022-11-13T02:25:41.918Z,1.78
2022-11-13T02:26:41.904Z,1.82
2022-11-13T02:27:41.887Z,1.77
2022-11-13T02:28:41.945Z,1.84
2022-11-13T02:29:41.955Z,1.84
2022-11-13T02:30:41.875Z,1.93
2022-11-13T02:31:41.870Z,1.92
2022-11-13T02:32:41.855Z,1.89
2022-11-13T02:33:41.845Z,1.81
2022-11-13T02:34:41.860Z,1.87
2022-11-13T02:35:41.842Z,1.77
2022-11-13T02:36:41.825Z,1.87
2022-11-13T02:37:41.914Z,1.85
2022-11-13T02:38:41.804Z,1.89
2022-11-13T02:39:41.820Z,1.81
2022-11-13T02:40:41.791Z,1.74
2022-11-13T02:41:41.776Z,1.77
2022-11-13T02:42:41.768Z,1.80
2022-11-13T02:43:41.778Z,1.66
2022-11-13T02:44:41.752Z,1.64
2022-11-13T02:45:41.850Z,1.81
2022-11-13T02:46:41.744Z,1.74
2022-11-13T02:47:41.747Z,1.66
2022-11-13T02:48:41.736Z,1.74
2022-11-13T02:49:41.747Z,1.59
2022-11-13T02:50:41.721Z,1.75
2022-11-13T02:51:41.745Z,1.67
2022-11-13T02:52:41.743Z,1.81
2022-11-13T02:53:41.681Z,1.80
2022-11-13T02:54:41.693Z,1.77
2022-11-13T02:55:41.683Z,1.78
2022-11-13T02:56:41.729Z,1.69
2022-11-13T02:57:41.678Z,1.71
2022-11-13T02:58:41.650Z,1.64
2022-11-13T02:59:41.682Z,1.56
2022-11-13T03:00:41.639Z,1.59
2022-11-13T03:01:41.739Z,1.64
2022-11-13T03:02:41.630Z,1.62
2022-11-13T03:03:56.943Z,1.75
2022-11-13T03:05:10.945Z,1.74
2022-11-13T03:05:42.576Z,1.69
2022-11-13T03:06:41.631Z,1.62
2022-11-13T03:07:41.578Z,1.67
2022-11-13T03:08:41.577Z,1.69
2022-11-13T03:09:41.551Z,1.64
2022-11-13T03:10:41.546Z,1.53
2022-11-13T03:11:41.543Z,1.56
2022-11-13T03:12:41.538Z,1.48
2022-11-13T03:13:41.586Z,1.44
2022-11-13T03:14:41.518Z,1.41
2022-11-13T03:15:41.508Z,1.23
2022-11-13T03:16:41.501Z,1.28
2022-11-13T03:17:41.570Z,1.24
2022-11-13T03:18:41.477Z,1.02
2022-11-13T03:19:41.503Z,0.96
2022-11-13T03:20:41.472Z,0.88
2022-11-13T03:21:41.461Z,0.78
2022-11-13T03:22:41.455Z,0.72
2022-11-13T03:23:41.458Z,0.78
2022-11-13T03:24:41.455Z,0.78
2022-11-13T03:25:41.444Z,0.73
2022-11-13T03:26:41.437Z,0.76
2022-11-13T03:27:41.420Z,0.73
2022-11-13T03:28:41.415Z,0.82
2022-11-13T03:29:41.407Z,0.78
2022-11-13T03:30:41.411Z,0.80
2022-11-13T03:31:41.395Z,0.66
2022-11-13T03:32:41.397Z,0.59
2022-11-13T03:33:41.454Z,0.66
2022-11-13T03:34:41.363Z,0.62
2022-11-13T03:35:46.507Z,0.72
2022-11-13T03:36:42.344Z,0.72
2022-11-13T03:37:41.507Z,0.69
2022-11-13T03:38:41.324Z,0.80
2022-11-13T03:39:41.345Z,0.80
2022-11-13T03:40:41.328Z,0.80
2022-11-13T03:41:41.302Z,0.90
2022-11-13T03:42:41.304Z,0.98
2022-11-13T03:43:41.293Z,0.96
2022-11-13T03:44:41.284Z,1.09
2022-11-13T03:45:41.268Z,1.08
2022-11-13T03:46:41.287Z,1.02
2022-11-13T03:47:41.256Z,0.98
2022-11-13T03:48:41.256Z,0.82
2022-11-13T03:49:41.317Z,0.80
2022-11-13T03:50:45.346Z,0.74
2022-11-13T03:51:41.231Z,0.70
2022-11-13T03:52:41.231Z,0.63
2022-11-13T03:53:41.207Z,0.70
2022-11-13T03:54:41.200Z,0.74
2022-11-13T03:55:41.197Z,0.80
2022-11-13T03:56:41.211Z,0.78
2022-11-13T03:57:41.196Z,0.88
2022-11-13T03:58:43.715Z,0.94
2022-11-13T03:59:42.155Z,0.99
2022-11-13T04:00:41.171Z,1.05
2022-11-13T04:01:41.192Z,1.12
2022-11-13T04:02:41.141Z,1.16
2022-11-13T04:03:41.184Z,1.30
2022-11-13T04:04:41.160Z,1.26
2022-11-13T04:05:41.198Z,1.31
2022-11-13T04:06:41.116Z,1.30
2022-11-13T04:07:41.105Z,1.41
2022-11-13T04:08:41.086Z,1.39
2022-11-13T04:09:41.100Z,1.49
2022-11-13T04:10:41.087Z,1.48
2022-11-13T04:11:41.060Z,1.41
2022-11-13T04:12:41.058Z,1.55
2022-11-13T04:13:41.040Z,1.39
2022-11-13T04:14:41.053Z,1.49
2022-11-13T04:15:41.062Z,1.41
2022-11-13T04:16:41.084Z,1.44
2022-11-13T04:17:41.012Z,1.52
2022-11-13T04:18:40.991Z,1.52
2022-11-13T04:19:41.002Z,1.46
2022-11-13T04:20:41.004Z,1.53
2022-11-13T04:21:41.060Z,1.41
2022-11-13T04:22:40.996Z,1.55
2022-11-13T04:23:40.965Z,1.55
2022-11-13T04:24:40.955Z,1.55
2022-11-13T04:25:40.961Z,1.41
2022-11-13T04:26:40.995Z,1.34
2022-11-13T04:27:40.936Z,1.34
2022-11-13T04:28:40.937Z,1.41
2022-11-13T04:29:40.914Z,1.36
2022-11-13T04:30:40.907Z,1.52
2022-11-13T04:31:40.894Z,1.57
2022-11-13T04:32:40.933Z,1.53
2022-11-13T04:33:40.871Z,1.49
2022-11-13T04:34:40.867Z,1.45
2022-11-13T04:35:40.892Z,1.60
2022-11-13T04:36:40.856Z,1.57
2022-11-13T04:37:40.967Z,1.38
2022-11-13T04:38:40.843Z,1.55
2022-11-13T04:39:40.854Z,1.49
2022-11-13T04:40:40.821Z,1.63
2022-11-13T04:41:40.832Z,1.57
2022-11-13T04:42:40.827Z,1.49
2022-11-13T04:43:40.798Z,1.53
2022-11-13T04:44:40.789Z,1.57
2022-11-13T04:45:40.779Z,1.60
2022-11-13T04:46:40.801Z,1.60
2022-11-13T04:47:40.782Z,1.67
2022-11-13T04:48:40.812Z,1.80
2022-11-13T04:49:40.773Z,1.63
2022-11-13T04:50:40.736Z,1.78
2022-11-13T04:51:40.741Z,1.80
2022-11-13T04:52:40.725Z,1.57
2022-11-13T04:53:40.796Z,1.53
2022-11-13T04:54:40.737Z,1.53
2022-11-13T04:55:40.703Z,1.55
2022-11-13T04:56:40.742Z,1.45
2022-11-13T04:57:40.717Z,1.56
2022-11-13T05:01:34.893Z,1.38
2022-11-13T05:02:34.742Z,1.26
2022-11-13T05:03:34.734Z,1.28
2022-11-13T05:04:34.722Z,1.20
2022-11-13T05:05:34.711Z,1.24
2022-11-13T05:06:34.702Z,1.27
2022-11-13T05:07:34.743Z,1.24
2022-11-13T05:08:34.700Z,1.31
2022-11-13T05:09:34.764Z,1.23
2022-11-13T05:10:34.689Z,1.28
2022-11-13T05:11:34.680Z,1.24
2022-11-13T05:12:34.660Z,1.27
2022-11-13T05:13:34.669Z,1.24
2022-11-13T05:14:34.636Z,1.20
2022-11-13T05:15:34.634Z,1.26
2022-11-13T05:16:34.637Z,1.23
2022-11-13T05:17:34.627Z,1.16
2022-11-13T05:18:34.600Z,1.17
2022-11-13T05:19:34.675Z,1.06
2022-11-13T05:20:34.608Z,1.18
2022-11-13T05:21:34.578Z,1.26
2022-11-13T05:22:34.567Z,1.34
2022-11-13T05:23:34.680Z,1.20
2022-11-13T05:24:34.549Z,1.24
2022-11-13T05:25:34.616Z,1.34
2022-11-13T05:26:34.610Z,1.41
2022-11-13T05:27:34.558Z,1.30
2022-11-13T05:28:34.539Z,1.28
2022-11-13T05:29:34.556Z,1.44
2022-11-13T05:30:34.499Z,1.44
2022-11-13T05:31:35.240Z,1.41
2022-11-13T05:32:34.501Z,1.56
2022-11-13T05:33:34.520Z,1.49
2022-11-13T05:34:34.506Z,1.38
2022-11-13T05:35:34.472Z,1.30
2022-11-13T05:36:34.443Z,1.27
2022-11-13T05:37:34.439Z,1.20
2022-11-13T05:38:34.453Z,1.30
2022-11-13T05:39:34.446Z,1.41
2022-11-13T05:40:34.463Z,1.39
2022-11-13T05:41:34.496Z,1.36
2022-11-13T05:42:34.401Z,1.30
2022-11-13T05:43:34.415Z,1.27
2022-11-13T05:44:34.412Z,1.20
2022-11-13T05:45:34.410Z,1.24
2022-11-13T05:46:34.404Z,1.23
2022-11-13T05:47:34.401Z,1.26
2022-11-13T05:48:34.543Z,1.27
2022-11-13T05:49:34.358Z,1.27
2022-11-13T05:50:34.396Z,1.20
2022-11-13T05:51:34.336Z,1.24
2022-11-13T05:52:34.320Z,1.34
2022-11-13T05:53:34.366Z,1.38
2022-11-13T05:54:34.351Z,1.36
2022-11-13T05:55:34.311Z,1.28
2022-11-13T05:56:34.329Z,1.21
2022-11-13T05:57:34.405Z,1.17
2022-11-13T05:58:34.283Z,1.23
2022-11-13T05:59:34.301Z,1.20
2022-11-13T06:00:34.277Z,1.16
2022-11-13T06:01:34.297Z,1.13
2022-11-13T06:02:34.273Z,1.21
2022-11-13T06:03:34.314Z,1.17
2022-11-13T06:04:34.275Z,1.12
2022-11-13T06:05:34.236Z,1.05
2022-11-13T06:06:34.231Z,0.91
2022-11-13T06:07:34.219Z,0.67
2022-11-13T06:08:34.206Z,0.66
2022-11-13T06:09:34.219Z,0.59
2022-11-13T06:10:34.188Z,0.62
2022-11-13T06:11:34.174Z,0.64
2022-11-13T06:12:34.189Z,0.74
2022-11-13T06:13:34.174Z,0.72
2022-11-13T06:14:34.171Z,0.62
2022-11-13T06:15:34.148Z,0.48
2022-11-13T06:16:34.133Z,0.44
2022-11-13T06:17:34.170Z,0.47
2022-11-13T06:18:34.387Z,0.51
2022-11-13T06:19:34.177Z,0.51
2022-11-13T06:20:34.101Z,0.43
2022-11-13T06:21:34.091Z,0.37
2022-11-13T06:22:34.113Z,0.43
2022-11-13T06:23:34.079Z,0.47
2022-11-13T06:24:34.058Z,0.40
2022-11-13T06:25:34.112Z,0.50
2022-11-13T06:26:34.043Z,0.48
2022-11-13T06:27:34.035Z,0.48
2022-11-13T06:28:34.033Z,0.62
2022-11-13T06:29:34.132Z,0.70
2022-11-13T06:30:34.074Z,0.72
2022-11-13T06:31:34.019Z,0.76
2022-11-13T06:32:33.989Z,0.74
2022-11-13T06:33:34.030Z,0.74
2022-11-13T06:34:34.002Z,0.76
2022-11-13T06:35:34.027Z,0.56
2022-11-13T06:36:34.001Z,0.67
2022-11-13T06:37:34.925Z,0.64
2022-11-13T06:38:34.008Z,0.72
2022-11-13T06:39:33.935Z,0.76
2022-11-13T06:40:33.949Z,0.78
2022-11-13T06:41:33.953Z,0.94
2022-11-13T06:42:34.006Z,0.98
2022-11-13T06:43:33.937Z,0.91
2022-11-13T06:44:33.897Z,0.98
2022-11-13T06:45:33.994Z,1.05
2022-11-13T06:46:33.939Z,1.08
2022-11-13T06:47:34.000Z,1.09
2022-11-13T06:48:33.859Z,1.10
2022-11-13T06:49:33.857Z,1.16
2022-11-13T06:50:33.869Z,1.03
2022-11-13T06:51:33.842Z,1.08
2022-11-13T06:52:33.919Z,1.17
2022-11-13T06:53:33.826Z,1.16
2022-11-13T06:54:33.846Z,1.09
2022-11-13T06:55:33.810Z,1.20
2022-11-13T06:56:33.880Z,1.26
2022-11-13T06:57:33.830Z,1.09
2022-11-13T06:58:33.820Z,0.70
2022-11-13T06:59:33.810Z,0.78
2022-11-13T07:00:37.017Z,0.92
2022-11-13T07:01:33.929Z,0.90
2022-11-13T07:02:33.800Z,0.80
2022-11-13T07:03:33.772Z,0.78
2022-11-13T07:04:33.732Z,0.90
2022-11-13T07:05:33.756Z,0.88
2022-11-13T07:06:39.041Z,0.96
2022-11-13T07:07:34.718Z,0.98
2022-11-13T07:08:33.763Z,0.96
2022-11-13T07:09:33.718Z,1.02
2022-11-13T07:10:33.720Z,0.88
2022-11-13T07:11:33.702Z,0.96
2022-11-13T07:12:33.688Z,0.99
2022-11-13T07:13:33.713Z,0.94
2022-11-13T07:14:33.709Z,1.08
2022-11-13T07:15:33.675Z,1.06
2022-11-13T07:16:56.270Z,1.06
2022-11-13T07:17:34.726Z,1.10
2022-11-13T07:18:33.665Z,1.24
2022-11-13T07:19:33.651Z,1.21
2022-11-13T07:20:33.647Z,1.41
2022-11-13T07:21:33.622Z,1.59
2022-11-13T07:22:33.609Z,1.57
2022-11-13T07:23:33.605Z,1.57
2022-11-13T07:24:33.630Z,1.60
2022-11-13T07:25:33.589Z,1.56
2022-11-13T07:26:33.598Z,1.49
2022-11-13T07:27:33.570Z,1.49
2022-11-13T07:28:33.566Z,1.44
2022-11-13T07:29:33.543Z,1.42
2022-11-13T07:30:33.544Z,1.28
2022-11-13T07:31:33.562Z,1.17
2022-11-13T07:32:33.542Z,1.18
2022-11-13T07:33:33.599Z,1.27
2022-11-13T07:34:33.507Z,1.27
2022-11-13T07:35:33.496Z,1.05
2022-11-13T07:36:33.487Z,1.20
2022-11-13T07:37:33.506Z,1.21
2022-11-13T07:38:33.478Z,1.24
2022-11-13T07:39:33.475Z,1.26
2022-11-13T07:40:33.464Z,1.24
2022-11-13T07:41:33.451Z,1.13
2022-11-13T07:42:33.467Z,0.91
2022-11-13T07:43:33.442Z,1.02
2022-11-13T07:44:53.655Z,1.05
2022-11-13T07:45:34.429Z,1.06
2022-11-13T07:46:33.448Z,1.06
2022-11-13T07:47:33.447Z,1.27
2022-11-13T07:48:33.455Z,1.35
2022-11-13T07:49:33.486Z,1.38
2022-11-13T07:50:33.408Z,1.44
2022-11-13T07:51:33.400Z,1.42
2022-11-13T07:52:33.398Z,1.34
2022-11-13T07:53:33.356Z,1.23
2022-11-13T07:54:33.482Z,1.31
2022-11-13T07:55:33.348Z,1.39
2022-11-13T07:56:33.339Z,1.44
2022-11-13T07:57:33.445Z,1.63
2022-11-13T07:58:33.401Z,1.74
2022-11-13T07:59:33.310Z,1.77
2022-11-13T08:00:33.342Z,1.77
2022-11-13T08:01:33.337Z,1.85
2022-11-13T08:02:33.400Z,1.85
2022-11-13T08:03:33.283Z,1.81
2022-11-13T08:04:33.337Z,1.78
2022-11-13T08:05:33.348Z,1.87
2022-11-13T08:06:33.288Z,1.97
2022-11-13T08:07:33.247Z,2.14
2022-11-13T08:08:33.243Z,2.21
2022-11-13T08:09:33.247Z,2.18
2022-11-13T08:10:33.254Z,2.17
2022-11-13T08:11:33.220Z,1.91
2022-11-13T08:12:33.366Z,1.75
2022-11-13T08:13:33.211Z,1.82
2022-11-13T08:14:33.275Z,1.75
2022-11-13T08:15:33.226Z,1.75
2022-11-13T08:16:33.187Z,1.93
2022-11-13T08:17:33.288Z,1.75
2022-11-13T08:18:33.169Z,1.97
2022-11-13T08:19:33.155Z,2.06
2022-11-13T08:20:33.222Z,2.12
2022-11-13T08:21:33.240Z,2.17
2022-11-13T08:22:33.127Z,2.01
2022-11-13T08:23:33.117Z,2.03
2022-11-13T08:24:33.137Z,2.11
2022-11-13T08:25:33.100Z,2.15
2022-11-13T08:26:33.130Z,1.92
2022-11-13T08:27:33.130Z,1.92
2022-11-13T08:28:33.100Z,1.77
2022-11-13T08:29:33.075Z,1.81
2022-11-13T08:30:33.074Z,1.84
2022-11-13T08:31:33.090Z,1.49
2022-11-13T08:32:33.064Z,1.57
2022-11-13T08:33:34.728Z,1.81
2022-11-13T08:34:33.044Z,1.67
2022-11-13T08:35:33.213Z,1.84
2022-11-13T08:36:33.022Z,2.01
2022-11-13T08:37:33.425Z,2.11
2022-11-13T08:38:33.005Z,2.19
2022-11-13T08:39:33.262Z,2.33
2022-11-13T08:40:33.011Z,2.14
2022-11-13T08:41:33.721Z,1.93
2022-11-13T08:42:33.000Z,2.11
2022-11-13T08:43:32.981Z,2.11
2022-11-13T08:44:32.957Z,2.35
2022-11-13T08:45:33.181Z,1.87
2022-11-13T08:46:32.941Z,1.82
2022-11-13T08:47:32.942Z,2.06
2022-11-13T08:48:32.948Z,2.14
2022-11-13T08:49:32.905Z,1.97
2022-11-13T08:50:32.946Z,2.15
2022-11-13T08:51:32.969Z,2.36
2022-11-13T08:52:32.958Z,2.47
2022-11-13T08:53:32.968Z,2.35
2022-11-13T08:54:32.888Z,2.36
2022-11-13T08:55:33.320Z,2.57
2022-11-13T08:56:33.201Z,2.53
2022-11-13T08:57:33.799Z,2.63
2022-11-13T08:58:32.935Z,2.63
2022-11-13T08:59:32.863Z,2.33
2022-11-13T09:00:32.842Z,2.15
2022-11-13T09:01:32.847Z,2.30
2022-11-13T09:02:32.816Z,2.51
2022-11-13T09:03:32.957Z,2.48
2022-11-13T09:04:32.812Z,2.76
2022-11-13T09:05:32.852Z,3.18
2022-11-13T09:06:32.798Z,3.02
2022-11-13T09:07:32.844Z,2.97
2022-11-13T09:08:32.807Z,2.90
2022-11-13T09:09:32.860Z,3.04
2022-11-13T09:10:32.763Z,3.11
2022-11-13T09:11:32.771Z,3.25
2022-11-13T09:12:32.791Z,3.12
2022-11-13T09:13:32.744Z,3.59
2022-11-13T09:14:32.792Z,3.66
2022-11-13T09:15:32.762Z,4.00
2022-11-13T09:16:32.711Z,3.92
2022-11-13T09:17:32.697Z,4.13
2022-11-13T09:18:32.709Z,4.13
2022-11-13T09:19:32.685Z,4.27
2022-11-13T09:20:32.720Z,4.34
2022-11-13T09:21:32.695Z,4.63
2022-11-13T09:22:32.661Z,5.19
2022-11-13T09:23:32.716Z,5.69
2022-11-13T09:24:32.676Z,5.50
2022-11-13T09:25:37.016Z,5.59
2022-11-13T09:26:33.683Z,5.97
2022-11-13T09:27:32.652Z,5.57
2022-11-13T09:28:32.649Z,5.79
2022-11-13T09:29:32.646Z,5.98
2022-11-13T09:30:32.607Z,6.25
2022-11-13T09:31:32.599Z,6.47
2022-11-13T09:32:32.865Z,6.18
2022-11-13T09:33:32.606Z,6.56
2022-11-13T09:34:32.590Z,6.60
2022-11-13T09:35:32.569Z,6.19
2022-11-13T09:36:32.561Z,5.91
2022-11-13T09:37:32.651Z,5.69
2022-11-13T09:38:32.680Z,5.70
2022-11-13T09:39:32.537Z,6.00
2022-11-13T09:40:32.528Z,6.21
2022-11-13T09:41:32.597Z,7.00
2022-11-13T09:42:32.510Z,8.01
2022-11-13T09:43:32.532Z,7.91
2022-11-13T09:44:32.497Z,8.14
2022-11-13T09:45:32.514Z,7.91
2022-11-13T09:46:32.469Z,8.71
2022-11-13T09:47:32.454Z,9.65
2022-11-13T09:48:32.654Z,10.05
2022-11-13T09:49:32.456Z,10.14
2022-11-13T09:50:32.438Z,10.70
2022-11-13T09:51:32.429Z,11.11
2022-11-13T09:52:32.466Z,11.88
2022-11-13T09:53:32.428Z,12.10
2022-11-13T09:54:33.422Z,12.21
2022-11-13T09:55:32.405Z,12.26
2022-11-13T09:56:32.384Z,13.16
2022-11-13T09:57:32.455Z,13.61
2022-11-13T09:58:32.423Z,13.30
2022-11-13T09:59:32.579Z,13.45
2022-11-13T10:00:32.386Z,13.90
2022-11-13T10:01:32.442Z,12.72
2022-11-13T10:02:32.328Z,12.83
2022-11-13T10:03:59.332Z,13.11
2022-11-13T10:04:33.310Z,13.01
2022-11-13T10:05:32.322Z,12.83
2022-11-13T10:06:32.515Z,12.88
2022-11-13T10:07:32.304Z,12.28
2022-11-13T10:08:32.297Z,11.73
2022-11-13T10:09:32.281Z,12.55
2022-11-13T10:10:32.269Z,12.33
2022-11-13T10:11:32.298Z,11.41
2022-11-13T10:12:32.250Z,12.13
2022-11-13T10:13:32.318Z,12.40
2022-11-13T10:14:32.259Z,12.03
2022-11-13T10:15:32.300Z,11.27
2022-11-13T10:16:32.284Z,11.01
2022-11-13T10:17:32.204Z,10.87
2022-11-13T10:18:32.280Z,10.86
2022-11-13T10:19:32.202Z,10.67
2022-11-13T10:20:32.208Z,10.43
2022-11-13T10:21:32.180Z,10.43
2022-11-13T10:22:33.884Z,10.62
2022-11-13T10:23:32.470Z,10.57
2022-11-13T10:24:32.191Z,10.46
2022-11-13T10:25:32.156Z,10.01
2022-11-13T10:26:32.171Z,10.85
2022-11-13T10:27:32.213Z,12.05
2022-11-13T10:29:33.278Z,13.38
2022-11-13T10:30:32.104Z,13.90
2022-11-13T10:31:32.129Z,14.21
2022-11-13T10:32:32.259Z,13.05
2022-11-13T10:33:32.142Z,12.41
2022-11-13T10:34:32.095Z,13.45
2022-11-13T10:35:32.119Z,14.40
2022-11-13T10:36:32.079Z,15.47
2022-11-13T10:37:32.139Z,16.32
2022-11-13T10:38:32.156Z,16.94
2022-11-13T10:39:32.042Z,17.99
2022-11-13T10:40:40.066Z,18.75
2022-11-13T10:41:32.022Z,19.15
2022-11-13T10:42:32.039Z,18.51
2022-11-13T10:43:32.370Z,18.68
2022-11-13T10:44:32.009Z,19.53
2022-11-13T10:45:32.127Z,18.48
2022-11-13T10:46:31.994Z,16.90
2022-11-13T10:48:02.128Z,14.61
2022-11-13T10:48:33.002Z,13.61
2022-11-13T10:49:31.969Z,13.64
2022-11-13T10:50:31.998Z,14.01
2022-11-13T10:51:31.955Z,14.36
2022-11-13T10:52:31.966Z,15.41
2022-11-13T10:53:32.203Z,13.24
2022-11-13T10:54:31.955Z,12.84
2022-11-13T10:55:31.921Z,12.59
2022-11-13T10:56:31.923Z,13.53
2022-11-13T10:57:31.900Z,14.86
2022-11-13T10:58:32.223Z,14.95
2022-11-13T10:59:31.914Z,13.97
2022-11-13T11:00:31.879Z,15.10
2022-11-13T11:01:32.083Z,15.73
2022-11-13T11:02:31.859Z,15.76
2022-11-13T11:03:31.871Z,15.32
2022-11-13T11:04:31.843Z,14.96
2022-11-13T11:05:31.879Z,14.49
2022-11-13T11:06:48.961Z,13.04
2022-11-13T11:07:32.849Z,14.08
2022-11-13T11:08:32.215Z,14.38
2022-11-13T11:09:31.803Z,14.73
2022-11-13T11:10:31.802Z,13.42
2022-11-13T11:11:31.800Z,13.24
2022-11-13T11:12:31.792Z,13.17
2022-11-13T11:13:31.844Z,13.90
2022-11-13T11:14:31.762Z,13.91
2022-11-13T11:15:31.752Z,14.40
2022-11-13T11:16:31.770Z,14.89
2022-11-13T11:17:31.825Z,14.67
2022-11-13T11:18:32.104Z,15.14
2022-11-13T11:19:31.727Z,15.33
2022-11-13T11:20:31.744Z,14.92
2022-11-13T11:21:31.783Z,15.27
2022-11-13T11:22:31.715Z,15.07
2022-11-13T11:23:31.694Z,14.33
2022-11-13T11:24:31.966Z,13.98
2022-11-13T11:25:31.673Z,14.52
2022-11-13T11:26:31.693Z,14.73
2022-11-13T11:27:31.660Z,14.90
2022-11-13T11:28:32.070Z,15.63
2022-11-13T11:29:31.661Z,15.35
2022-11-13T11:30:31.655Z,15.96
2022-11-13T11:31:31.631Z,15.51
2022-11-13T11:32:31.628Z,16.40
2022-11-13T11:33:31.698Z,16.18
2022-11-13T11:34:31.652Z,16.69
2022-11-13T11:35:31.614Z,16.47
2022-11-13T11:36:31.603Z,15.87
2022-11-13T11:37:31.624Z,15.60
2022-11-13T11:38:31.905Z,15.96
2022-11-13T11:39:31.572Z,15.36
2022-11-13T11:40:31.561Z,14.00
2022-11-13T11:41:31.565Z,14.28
2022-11-13T11:42:31.541Z,15.47
2022-11-13T11:43:31.540Z,16.17
2022-11-13T11:44:31.575Z,16.05
2022-11-13T11:45:31.535Z,15.77
2022-11-13T11:46:31.541Z,15.35
2022-11-13T11:47:31.506Z,15.30
2022-11-13T11:48:32.014Z,15.51
2022-11-13T11:49:31.566Z,15.38
2022-11-13T11:50:31.483Z,15.66
2022-11-13T11:51:31.583Z,15.35
2022-11-13T11:52:31.505Z,15.99
2022-11-13T11:53:31.544Z,16.03
2022-11-13T11:54:31.450Z,15.59
2022-11-13T11:55:31.444Z,15.72
2022-11-13T11:56:31.494Z,15.83
2022-11-13T11:57:31.503Z,15.80
2022-11-13T11:58:31.707Z,15.96
2022-11-13T11:59:31.424Z,16.36
2022-11-13T12:00:31.414Z,16.74
2022-11-13T12:01:31.406Z,17.27
2022-11-13T12:02:31.403Z,16.91
2022-11-13T12:03:31.759Z,16.73
2022-11-13T12:04:31.418Z,15.99
2022-11-13T12:05:31.456Z,16.02
2022-11-13T12:06:32.077Z,15.72
2022-11-13T12:07:31.387Z,16.05
2022-11-13T12:08:31.664Z,15.88
2022-11-13T12:09:31.349Z,16.25
2022-11-13T12:10:31.882Z,16.39
2022-11-13T12:11:31.502Z,17.13
2022-11-13T12:12:31.320Z,17.28
2022-11-13T12:13:31.312Z,16.43
2022-11-13T12:14:31.451Z,16.83
2022-11-13T12:15:31.319Z,16.13
2022-11-13T12:16:31.312Z,16.43
2022-11-13T12:17:31.295Z,16.36
2022-11-13T12:18:31.456Z,16.21
2022-11-13T12:19:31.274Z,16.09
2022-11-13T12:20:31.586Z,16.03
2022-11-13T12:21:31.349Z,16.03
2022-11-13T12:22:31.268Z,16.21
2022-11-13T12:23:31.253Z,16.37
2022-11-13T12:24:31.216Z,15.76
2022-11-13T12:25:31.204Z,16.25
2022-11-13T12:26:31.224Z,16.67
2022-11-13T12:27:31.207Z,17.66
2022-11-13T12:28:31.508Z,16.83
2022-11-13T12:29:31.207Z,16.39
2022-11-13T12:30:31.175Z,16.82
2022-11-13T12:31:31.167Z,16.54
2022-11-13T12:32:31.164Z,16.51
2022-11-13T12:33:31.204Z,16.67
2022-11-13T12:34:31.201Z,16.36
2022-11-13T12:35:31.139Z,16.42
2022-11-13T12:36:31.122Z,16.44
2022-11-13T12:37:31.210Z,16.29
2022-11-13T12:38:31.385Z,16.46
2022-11-13T12:39:31.121Z,16.22
2022-11-13T12:40:31.115Z,16.69
2022-11-13T12:41:31.094Z,16.58
2022-11-13T12:42:31.081Z,16.42
2022-11-13T12:43:31.077Z,16.05
2022-11-13T12:44:31.066Z,16.62
2022-11-13T12:45:31.082Z,16.73
2022-11-13T12:46:31.067Z,16.40
2022-11-13T12:47:31.048Z,16.24
2022-11-13T12:48:31.322Z,16.13
2022-11-13T12:49:31.026Z,16.61
2022-11-13T12:50:32.805Z,16.98
2022-11-13T12:51:31.018Z,16.91
2022-11-13T12:52:31.002Z,16.70
2022-11-13T12:53:31.079Z,17.27
2022-11-13T12:54:30.989Z,17.02
2022-11-13T12:55:31.040Z,16.65
2022-11-13T12:56:30.990Z,16.42
2022-11-13T12:57:31.015Z,17.22
2022-11-13T12:58:31.481Z,17.50
2022-11-13T12:59:31.897Z,17.50
2022-11-13T13:00:30.939Z,17.04
2022-11-13T13:01:31.035Z,16.61
2022-11-13T13:02:30.918Z,16.64
2022-11-13T13:03:30.915Z,16.91
2022-11-13T13:04:30.902Z,16.51
2022-11-13T13:05:30.899Z,16.17
2022-11-13T13:06:30.881Z,16.06
2022-11-13T13:07:30.913Z,16.13
2022-11-13T13:08:31.184Z,16.26
2022-11-13T13:09:32.314Z,16.44
2022-11-13T13:10:30.854Z,16.18
2022-11-13T13:11:30.850Z,16.14
2022-11-13T13:12:30.844Z,16.54
2022-11-13T13:13:30.850Z,17.06
2022-11-13T13:14:30.855Z,16.83
2022-11-13T13:15:30.825Z,17.07